N752OC KCPU-43NV
Flight info
| Callsign | N752OC |
|---|---|
| Flight time | 0h 53m |
| Altitude | 11000 |
| Route | OVRRR |
| Aircraft | C150/L-VGDW/C |
Departure
| Time | 2026-05-06 04:50 |
|---|---|
| Airport | Calaveras Co Maury Rasmussen Field (KCPU) |
Arrival
| Time | 2026-05-06 05:44 |
|---|---|
| Airport | Topaz Ranch Airport (43NV) |
| Time | Latitude | Longitude | Altitude | Speed | Heading |
|---|---|---|---|---|---|
| 2026-05-06 04:35 | 38.14628 | -120.64706 | 1313 ft | 0 kts | 237° |
| 2026-05-06 04:44 | 38.14628 | -120.64708 | 1313 ft | 1 kts | 236° |
| 2026-05-06 04:44 | 38.14600 | -120.64732 | 1314 ft | 3 kts | 186° |
| 2026-05-06 04:45 | 38.14599 | -120.64732 | 1314 ft | 0 kts | 185° |
| 2026-05-06 04:45 | 38.14605 | -120.64748 | 1314 ft | 4 kts | 316° |
| 2026-05-06 04:45 | 38.14646 | -120.64784 | 1313 ft | 9 kts | 324° |
| 2026-05-06 04:46 | 38.14716 | -120.64844 | 1312 ft | 13 kts | 326° |
| 2026-05-06 04:46 | 38.14800 | -120.64915 | 1312 ft | 15 kts | 324° |
| 2026-05-06 04:46 | 38.14902 | -120.65002 | 1310 ft | 18 kts | 324° |
| 2026-05-06 04:46 | 38.15002 | -120.65088 | 1308 ft | 10 kts | 326° |
| 2026-05-06 04:47 | 38.15013 | -120.65105 | 1307 ft | 4 kts | 290° |
| 2026-05-06 04:47 | 38.15004 | -120.65153 | 1307 ft | 3 kts | 160° |
| 2026-05-06 04:47 | 38.14989 | -120.65141 | 1308 ft | 0 kts | 146° |
| 2026-05-06 04:48 | 38.14949 | -120.65106 | 1308 ft | 25 kts | 142° |
| 2026-05-06 04:48 | 38.14693 | -120.64886 | 1326 ft | 56 kts | 144° |
| 2026-05-06 04:48 | 38.14315 | -120.64570 | 1366 ft | 69 kts | 148° |
| 2026-05-06 04:49 | 38.13903 | -120.64258 | 1474 ft | 68 kts | 148° |
| 2026-05-06 04:49 | 38.13469 | -120.63973 | 1578 ft | 71 kts | 152° |
| 2026-05-06 04:49 | 38.13283 | -120.63457 | 1666 ft | 74 kts | 70° |
| 2026-05-06 04:49 | 38.13643 | -120.63028 | 1770 ft | 75 kts | 12° |
| 2026-05-06 04:50 | 38.14148 | -120.62921 | 1882 ft | 75 kts | 9° |
| 2026-05-06 04:50 | 38.14660 | -120.62779 | 2002 ft | 74 kts | 12° |
| 2026-05-06 04:50 | 38.15162 | -120.62643 | 2109 ft | 75 kts | 5° |
| 2026-05-06 04:50 | 38.15682 | -120.62597 | 2223 ft | 74 kts | 2° |
| 2026-05-06 04:51 | 38.16193 | -120.62564 | 2333 ft | 74 kts | 1° |
| 2026-05-06 04:51 | 38.16694 | -120.62420 | 2403 ft | 78 kts | 40° |
| 2026-05-06 04:51 | 38.16901 | -120.61826 | 2531 ft | 73 kts | 78° |
| 2026-05-06 04:51 | 38.16984 | -120.61258 | 2680 ft | 67 kts | 74° |
| 2026-05-06 04:52 | 38.17109 | -120.60672 | 2766 ft | 69 kts | 67° |
| 2026-05-06 04:52 | 38.17249 | -120.60091 | 2869 ft | 70 kts | 71° |
| 2026-05-06 04:52 | 38.17371 | -120.59506 | 2984 ft | 68 kts | 72° |
| 2026-05-06 04:52 | 38.17485 | -120.58906 | 3079 ft | 70 kts | 73° |
| 2026-05-06 04:53 | 38.17607 | -120.58326 | 3190 ft | 68 kts | 70° |
| 2026-05-06 04:53 | 38.17790 | -120.57769 | 3288 ft | 68 kts | 60° |
| 2026-05-06 04:53 | 38.17990 | -120.57224 | 3386 ft | 69 kts | 60° |
| 2026-05-06 04:53 | 38.18210 | -120.56696 | 3498 ft | 67 kts | 57° |
| 2026-05-06 04:54 | 38.18444 | -120.56174 | 3599 ft | 66 kts | 56° |
| 2026-05-06 04:54 | 38.18696 | -120.55659 | 3672 ft | 70 kts | 54° |
| 2026-05-06 04:54 | 38.18949 | -120.55140 | 3771 ft | 69 kts | 56° |
| 2026-05-06 04:54 | 38.19200 | -120.54618 | 3872 ft | 68 kts | 53° |
| 2026-05-06 04:55 | 38.19467 | -120.54110 | 3953 ft | 70 kts | 52° |
| 2026-05-06 04:55 | 38.19732 | -120.53594 | 4049 ft | 70 kts | 56° |
| 2026-05-06 04:55 | 38.19995 | -120.53071 | 4144 ft | 69 kts | 53° |
| 2026-05-06 04:55 | 38.20256 | -120.52549 | 4236 ft | 70 kts | 55° |
| 2026-05-06 04:56 | 38.20511 | -120.52032 | 4333 ft | 69 kts | 56° |
| 2026-05-06 04:56 | 38.20764 | -120.51508 | 4418 ft | 70 kts | 57° |
| 2026-05-06 04:56 | 38.21015 | -120.50970 | 4503 ft | 70 kts | 58° |
| 2026-05-06 04:56 | 38.21257 | -120.50442 | 4592 ft | 70 kts | 58° |
| 2026-05-06 04:57 | 38.21505 | -120.49906 | 4680 ft | 69 kts | 59° |
| 2026-05-06 04:57 | 38.21738 | -120.49362 | 4753 ft | 71 kts | 62° |
| 2026-05-06 04:57 | 38.21975 | -120.48824 | 4843 ft | 70 kts | 60° |
| 2026-05-06 04:57 | 38.22208 | -120.48264 | 4920 ft | 71 kts | 58° |
| 2026-05-06 04:58 | 38.22432 | -120.47712 | 5005 ft | 71 kts | 60° |
| 2026-05-06 04:58 | 38.22671 | -120.47156 | 5095 ft | 70 kts | 59° |
| 2026-05-06 04:58 | 38.22900 | -120.46612 | 5172 ft | 71 kts | 62° |
| 2026-05-06 04:58 | 38.23137 | -120.46070 | 5258 ft | 70 kts | 53° |
| 2026-05-06 04:59 | 38.23443 | -120.45570 | 5329 ft | 72 kts | 51° |
| 2026-05-06 04:59 | 38.23730 | -120.45062 | 5415 ft | 71 kts | 57° |
| 2026-05-06 04:59 | 38.24003 | -120.44546 | 5502 ft | 70 kts | 54° |
| 2026-05-06 04:59 | 38.24264 | -120.44003 | 5581 ft | 70 kts | 62° |
| 2026-05-06 05:00 | 38.24498 | -120.43464 | 5657 ft | 71 kts | 61° |
| 2026-05-06 05:00 | 38.24736 | -120.42915 | 5735 ft | 71 kts | 58° |
| 2026-05-06 05:00 | 38.25002 | -120.42371 | 5807 ft | 72 kts | 62° |
| 2026-05-06 05:00 | 38.25238 | -120.41813 | 5890 ft | 71 kts | 60° |
| 2026-05-06 05:01 | 38.25504 | -120.41269 | 5956 ft | 73 kts | 57° |
| 2026-05-06 05:01 | 38.25774 | -120.40742 | 6046 ft | 71 kts | 57° |
| 2026-05-06 05:01 | 38.26036 | -120.40208 | 6122 ft | 71 kts | 59° |
| 2026-05-06 05:01 | 38.26275 | -120.39651 | 6197 ft | 71 kts | 60° |
| 2026-05-06 05:02 | 38.26504 | -120.39101 | 6274 ft | 71 kts | 61° |
| 2026-05-06 05:02 | 38.26749 | -120.38560 | 6351 ft | 70 kts | 57° |
| 2026-05-06 05:02 | 38.27030 | -120.38034 | 6413 ft | 72 kts | 54° |
| 2026-05-06 05:02 | 38.27318 | -120.37521 | 6494 ft | 70 kts | 58° |
| 2026-05-06 05:03 | 38.27579 | -120.36974 | 6560 ft | 71 kts | 62° |
| 2026-05-06 05:03 | 38.27768 | -120.36399 | 6628 ft | 72 kts | 69° |
| 2026-05-06 05:03 | 38.27960 | -120.35809 | 6716 ft | 70 kts | 64° |
| 2026-05-06 05:03 | 38.28163 | -120.35231 | 6767 ft | 72 kts | 63° |
| 2026-05-06 05:04 | 38.28399 | -120.34681 | 6844 ft | 72 kts | 62° |
| 2026-05-06 05:04 | 38.28634 | -120.34105 | 6908 ft | 73 kts | 61° |
| 2026-05-06 05:04 | 38.28889 | -120.33561 | 6981 ft | 73 kts | 58° |
| 2026-05-06 05:04 | 38.29176 | -120.33017 | 7053 ft | 72 kts | 56° |
| 2026-05-06 05:05 | 38.29452 | -120.32487 | 7119 ft | 72 kts | 55° |
| 2026-05-06 05:05 | 38.29729 | -120.31954 | 7184 ft | 72 kts | 58° |
| 2026-05-06 05:05 | 38.29963 | -120.31393 | 7264 ft | 70 kts | 67° |
| 2026-05-06 05:05 | 38.30171 | -120.30817 | 7321 ft | 72 kts | 62° |
| 2026-05-06 05:06 | 38.30394 | -120.30250 | 7386 ft | 73 kts | 65° |
| 2026-05-06 05:06 | 38.30599 | -120.29671 | 7463 ft | 71 kts | 69° |
| 2026-05-06 05:06 | 38.30803 | -120.29081 | 7522 ft | 72 kts | 66° |
| 2026-05-06 05:06 | 38.31018 | -120.28509 | 7591 ft | 72 kts | 62° |
| 2026-05-06 05:07 | 38.31351 | -120.27764 | 7673 ft | 73 kts | 61° |
| 2026-05-06 05:07 | 38.31524 | -120.27400 | 7724 ft | 72 kts | 60° |
| 2026-05-06 05:07 | 38.31768 | -120.26835 | 7781 ft | 73 kts | 59° |
| 2026-05-06 05:07 | 38.32046 | -120.26294 | 7838 ft | 74 kts | 56° |
| 2026-05-06 05:08 | 38.32338 | -120.25764 | 7912 ft | 72 kts | 56° |
| 2026-05-06 05:08 | 38.32599 | -120.25211 | 7963 ft | 73 kts | 60° |
| 2026-05-06 05:08 | 38.32844 | -120.24638 | 8033 ft | 72 kts | 61° |
| 2026-05-06 05:08 | 38.33077 | -120.24075 | 8101 ft | 71 kts | 65° |
| 2026-05-06 05:09 | 38.33293 | -120.23504 | 8159 ft | 72 kts | 61° |
| 2026-05-06 05:09 | 38.33531 | -120.22938 | 8221 ft | 72 kts | 60° |
| 2026-05-06 05:09 | 38.33787 | -120.22395 | 8281 ft | 72 kts | 59° |
| 2026-05-06 05:09 | 38.34029 | -120.21825 | 8338 ft | 73 kts | 61° |
| 2026-05-06 05:10 | 38.34297 | -120.21281 | 8395 ft | 73 kts | 56° |
| 2026-05-06 05:10 | 38.34645 | -120.20541 | 8477 ft | 72 kts | 59° |
| 2026-05-06 05:10 | 38.34827 | -120.20182 | 8518 ft | 72 kts | 58° |
| 2026-05-06 05:10 | 38.35098 | -120.19634 | 8568 ft | 73 kts | 58° |
| 2026-05-06 05:11 | 38.35378 | -120.19088 | 8623 ft | 74 kts | 57° |
| 2026-05-06 05:11 | 38.35730 | -120.18353 | 8711 ft | 72 kts | 59° |
| 2026-05-06 05:11 | 38.35903 | -120.17987 | 8751 ft | 72 kts | 59° |
| 2026-05-06 05:11 | 38.36160 | -120.17434 | 8805 ft | 72 kts | 59° |
| 2026-05-06 05:12 | 38.36395 | -120.16860 | 8860 ft | 73 kts | 67° |
| 2026-05-06 05:12 | 38.36610 | -120.16286 | 8921 ft | 71 kts | 60° |
| 2026-05-06 05:12 | 38.36872 | -120.15733 | 8971 ft | 72 kts | 60° |
| 2026-05-06 05:12 | 38.37114 | -120.15179 | 9028 ft | 72 kts | 62° |
| 2026-05-06 05:13 | 38.37366 | -120.14630 | 9083 ft | 72 kts | 61° |
| 2026-05-06 05:13 | 38.37604 | -120.14056 | 9129 ft | 72 kts | 64° |
| 2026-05-06 05:13 | 38.37837 | -120.13492 | 9172 ft | 74 kts | 63° |
| 2026-05-06 05:13 | 38.38073 | -120.12925 | 9245 ft | 71 kts | 63° |
| 2026-05-06 05:14 | 38.38315 | -120.12367 | 9287 ft | 72 kts | 62° |
| 2026-05-06 05:14 | 38.38551 | -120.11806 | 9334 ft | 73 kts | 61° |
| 2026-05-06 05:14 | 38.38800 | -120.11234 | 9392 ft | 72 kts | 62° |
| 2026-05-06 05:14 | 38.39042 | -120.10673 | 9442 ft | 73 kts | 62° |
| 2026-05-06 05:15 | 38.39266 | -120.10094 | 9498 ft | 72 kts | 64° |
| 2026-05-06 05:15 | 38.39494 | -120.09522 | 9544 ft | 73 kts | 62° |
| 2026-05-06 05:15 | 38.39750 | -120.08975 | 9606 ft | 72 kts | 59° |
| 2026-05-06 05:15 | 38.40008 | -120.08441 | 9665 ft | 70 kts | 60° |
| 2026-05-06 05:16 | 38.40252 | -120.07884 | 9713 ft | 71 kts | 60° |
| 2026-05-06 05:16 | 38.40514 | -120.07360 | 9760 ft | 71 kts | 59° |
| 2026-05-06 05:16 | 38.40763 | -120.06817 | 9816 ft | 71 kts | 62° |
| 2026-05-06 05:16 | 38.41025 | -120.06280 | 9870 ft | 71 kts | 56° |
| 2026-05-06 05:17 | 38.41288 | -120.05743 | 9913 ft | 71 kts | 62° |
| 2026-05-06 05:17 | 38.41514 | -120.05183 | 9968 ft | 71 kts | 65° |
| 2026-05-06 05:17 | 38.41705 | -120.04597 | 10016 ft | 71 kts | 69° |
| 2026-05-06 05:17 | 38.41924 | -120.04045 | 10063 ft | 71 kts | 63° |
| 2026-05-06 05:18 | 38.42154 | -120.03467 | 10113 ft | 71 kts | 62° |
| 2026-05-06 05:18 | 38.42371 | -120.02927 | 10211 ft | 64 kts | 63° |
| 2026-05-06 05:18 | 38.42582 | -120.02392 | 10229 ft | 69 kts | 64° |
| 2026-05-06 05:18 | 38.42785 | -120.01828 | 10264 ft | 71 kts | 65° |
| 2026-05-06 05:19 | 38.42996 | -120.01257 | 10310 ft | 72 kts | 58° |
| 2026-05-06 05:19 | 38.43271 | -120.00731 | 10369 ft | 70 kts | 60° |
| 2026-05-06 05:19 | 38.43501 | -120.00181 | 10406 ft | 71 kts | 62° |
| 2026-05-06 05:19 | 38.43756 | -119.99627 | 10460 ft | 70 kts | 56° |
| 2026-05-06 05:20 | 38.44136 | -119.98933 | 10504 ft | 72 kts | 55° |
| 2026-05-06 05:20 | 38.44321 | -119.98582 | 10541 ft | 71 kts | 57° |
| 2026-05-06 05:20 | 38.44572 | -119.98027 | 10579 ft | 72 kts | 58° |
| 2026-05-06 05:20 | 38.44830 | -119.97481 | 10628 ft | 71 kts | 58° |
| 2026-05-06 05:21 | 38.45090 | -119.96910 | 10651 ft | 74 kts | 59° |
| 2026-05-06 05:21 | 38.45345 | -119.96365 | 10721 ft | 71 kts | 57° |
| 2026-05-06 05:21 | 38.45611 | -119.95818 | 10749 ft | 73 kts | 58° |
| 2026-05-06 05:21 | 38.45862 | -119.95268 | 10802 ft | 71 kts | 58° |
| 2026-05-06 05:22 | 38.46102 | -119.94715 | 10852 ft | 70 kts | 60° |
| 2026-05-06 05:22 | 38.46357 | -119.94169 | 10874 ft | 73 kts | 57° |
| 2026-05-06 05:22 | 38.46633 | -119.93636 | 10924 ft | 71 kts | 56° |
| 2026-05-06 05:22 | 38.46977 | -119.92912 | 10988 ft | 70 kts | 57° |
| 2026-05-06 05:23 | 38.47147 | -119.92556 | 10995 ft | 72 kts | 57° |
| 2026-05-06 05:23 | 38.47416 | -119.92001 | 11015 ft | 74 kts | 58° |
| 2026-05-06 05:23 | 38.48007 | -119.90620 | 11039 ft | 79 kts | 62° |
| 2026-05-06 05:24 | 38.48174 | -119.90189 | 11006 ft | 83 kts | 63° |
| 2026-05-06 05:24 | 38.48430 | -119.89518 | 10999 ft | 85 kts | 64° |
| 2026-05-06 05:24 | 38.48674 | -119.88817 | 10981 ft | 87 kts | 65° |
| 2026-05-06 05:24 | 38.48902 | -119.88116 | 10971 ft | 85 kts | 68° |
| 2026-05-06 05:25 | 38.49123 | -119.87416 | 10960 ft | 85 kts | 67° |
| 2026-05-06 05:25 | 38.49348 | -119.86719 | 10965 ft | 84 kts | 62° |
| 2026-05-06 05:25 | 38.49619 | -119.86073 | 10973 ft | 82 kts | 61° |
| 2026-05-06 05:25 | 38.49910 | -119.85422 | 10931 ft | 85 kts | 59° |
| 2026-05-06 05:26 | 38.50198 | -119.84762 | 10920 ft | 85 kts | 58° |
| 2026-05-06 05:26 | 38.50563 | -119.84151 | 10922 ft | 85 kts | 49° |
| 2026-05-06 05:26 | 38.50929 | -119.83618 | 10998 ft | 77 kts | 50° |
| 2026-05-06 05:26 | 38.51273 | -119.83071 | 10988 ft | 81 kts | 53° |
| 2026-05-06 05:27 | 38.51616 | -119.82492 | 10973 ft | 83 kts | 54° |
| 2026-05-06 05:27 | 38.52062 | -119.81685 | 10988 ft | 83 kts | 53° |
| 2026-05-06 05:27 | 38.52289 | -119.81294 | 11004 ft | 82 kts | 54° |
| 2026-05-06 05:27 | 38.52753 | -119.80486 | 10984 ft | 84 kts | 54° |
| 2026-05-06 05:28 | 38.52983 | -119.80090 | 10981 ft | 83 kts | 53° |
| 2026-05-06 05:28 | 38.53309 | -119.79489 | 10972 ft | 81 kts | 55° |
| 2026-05-06 05:28 | 38.53641 | -119.78887 | 10972 ft | 84 kts | 57° |
| 2026-05-06 05:28 | 38.53952 | -119.78266 | 11001 ft | 82 kts | 58° |
| 2026-05-06 05:29 | 38.54258 | -119.77643 | 10993 ft | 82 kts | 59° |
| 2026-05-06 05:29 | 38.54619 | -119.76773 | 10966 ft | 83 kts | 65° |
| 2026-05-06 05:29 | 38.54756 | -119.76327 | 10963 ft | 81 kts | 69° |
| 2026-05-06 05:29 | 38.54923 | -119.75623 | 10952 ft | 81 kts | 73° |
| 2026-05-06 05:30 | 38.55162 | -119.74984 | 10998 ft | 81 kts | 52° |
| 2026-05-06 05:30 | 38.55505 | -119.74387 | 10994 ft | 83 kts | 54° |
| 2026-05-06 05:30 | 38.55838 | -119.73793 | 10991 ft | 85 kts | 54° |
| 2026-05-06 05:30 | 38.56200 | -119.73199 | 10997 ft | 84 kts | 48° |
| 2026-05-06 05:31 | 38.56588 | -119.72625 | 10996 ft | 84 kts | 51° |
| 2026-05-06 05:31 | 38.56952 | -119.72034 | 10982 ft | 85 kts | 52° |
| 2026-05-06 05:31 | 38.57326 | -119.71449 | 10997 ft | 83 kts | 50° |
| 2026-05-06 05:31 | 38.57696 | -119.70876 | 10990 ft | 84 kts | 50° |
| 2026-05-06 05:32 | 38.58065 | -119.70295 | 10990 ft | 83 kts | 50° |
| 2026-05-06 05:32 | 38.58447 | -119.69741 | 10989 ft | 83 kts | 49° |
| 2026-05-06 05:32 | 38.58947 | -119.68971 | 10974 ft | 84 kts | 51° |
| 2026-05-06 05:32 | 38.59193 | -119.68573 | 10927 ft | 89 kts | 51° |
| 2026-05-06 05:33 | 38.59573 | -119.67956 | 10898 ft | 89 kts | 54° |
| 2026-05-06 05:33 | 38.59923 | -119.67299 | 10863 ft | 90 kts | 55° |
| 2026-05-06 05:33 | 38.60287 | -119.66638 | 10841 ft | 89 kts | 55° |
| 2026-05-06 05:33 | 38.60647 | -119.66007 | 10843 ft | 87 kts | 53° |
| 2026-05-06 05:34 | 38.60998 | -119.65382 | 10826 ft | 87 kts | 53° |
| 2026-05-06 05:34 | 38.61488 | -119.64535 | 10688 ft | 89 kts | 56° |
| 2026-05-06 05:34 | 38.61713 | -119.64072 | 10437 ft | 96 kts | 61° |
| 2026-05-06 05:34 | 38.62016 | -119.63324 | 10144 ft | 92 kts | 66° |
| 2026-05-06 05:35 | 38.62277 | -119.62588 | 9833 ft | 93 kts | 66° |
| 2026-05-06 05:35 | 38.62565 | -119.61854 | 9526 ft | 92 kts | 63° |
| 2026-05-06 05:35 | 38.63053 | -119.60958 | 9164 ft | 92 kts | 53° |
| 2026-05-06 05:35 | 38.63495 | -119.60365 | 8886 ft | 93 kts | 47° |
| 2026-05-06 05:36 | 38.63938 | -119.59775 | 8631 ft | 92 kts | 50° |
| 2026-05-06 05:36 | 38.64226 | -119.59380 | 8439 ft | 92 kts | 49° |
| 2026-05-06 05:36 | 38.64663 | -119.58778 | 8144 ft | 93 kts | 51° |
| 2026-05-06 05:36 | 38.65089 | -119.58183 | 7862 ft | 92 kts | 54° |
| 2026-05-06 05:37 | 38.65654 | -119.57381 | 7466 ft | 92 kts | 47° |
| 2026-05-06 05:37 | 38.65958 | -119.56995 | 7272 ft | 92 kts | 46° |
| 2026-05-06 05:37 | 38.66566 | -119.56227 | 6890 ft | 92 kts | 43° |
| 2026-05-06 05:37 | 38.67048 | -119.55712 | 6630 ft | 91 kts | 43° |
| 2026-05-06 05:38 | 38.67395 | -119.55400 | 6433 ft | 94 kts | 37° |
| 2026-05-06 05:38 | 38.67922 | -119.54946 | 6214 ft | 90 kts | 37° |
| 2026-05-06 05:38 | 38.68547 | -119.54218 | 5821 ft | 91 kts | 51° |
| 2026-05-06 05:38 | 38.68807 | -119.53813 | 5657 ft | 88 kts | 54° |
| 2026-05-06 05:39 | 38.69253 | -119.52972 | 5404 ft | 80 kts | 66° |
| 2026-05-06 05:39 | 38.69376 | -119.52553 | 5378 ft | 72 kts | 71° |
| 2026-05-06 05:39 | 38.69444 | -119.51870 | 5351 ft | 81 kts | 85° |
| 2026-05-06 05:39 | 38.69475 | -119.50900 | 5375 ft | 83 kts | 83° |
| 2026-05-06 05:40 | 38.69533 | -119.50396 | 5391 ft | 83 kts | 74° |
| 2026-05-06 05:40 | 38.69814 | -119.49500 | 5454 ft | 82 kts | 59° |
| 2026-05-06 05:40 | 38.70187 | -119.48942 | 5494 ft | 83 kts | 41° |
| 2026-05-06 05:40 | 38.70437 | -119.48649 | 5644 ft | 68 kts | 45° |
| 2026-05-06 05:41 | 38.70806 | -119.47945 | 5708 ft | 73 kts | 63° |
| 2026-05-06 05:41 | 38.70965 | -119.47542 | 5720 ft | 78 kts | 63° |
| 2026-05-06 05:41 | 38.71262 | -119.46716 | 5836 ft | 73 kts | 63° |
| 2026-05-06 05:41 | 38.71412 | -119.46332 | 5888 ft | 73 kts | 62° |
| 2026-05-06 05:42 | 38.71646 | -119.45766 | 5966 ft | 72 kts | 60° |
| 2026-05-06 05:42 | 38.72033 | -119.45098 | 5889 ft | 70 kts | 34° |
| 2026-05-06 05:42 | 38.72335 | -119.44953 | 5804 ft | 71 kts | 16° |
| 2026-05-06 05:42 | 38.72856 | -119.44957 | 5645 ft | 78 kts | 359° |
| 2026-05-06 05:43 | 38.73375 | -119.45042 | 5569 ft | 71 kts | 347° |
| 2026-05-06 05:43 | 38.73723 | -119.45363 | 5472 ft | 69 kts | 292° |
| 2026-05-06 05:43 | 38.73573 | -119.45942 | 5238 ft | 74 kts | 226° |
| 2026-05-06 05:43 | 38.73233 | -119.46420 | 5052 ft | 67 kts | 224° |
| 2026-05-06 05:44 | 38.73028 | -119.46687 | 5044 ft | 5 kts | 165° |
| 2026-05-06 05:44 | 38.73019 | -119.46680 | 5044 ft | 0 kts | 145° |